Time;durP1;ratioP1;P1;durP2;ratioP2;P2;SDS_P1;SDS_P2;PMS_P1;PMS_P2;Temp;Humidity;BMP_temperature;BMP_pressure;BME280_temperature;BME280_humidity;BME280_pressure;Samples;Min_cycle;Max_cycle;Signal;HPM_P1;HPM_P2
2021/07/07 00:01:01;;;;;;;2.67;1.40;;;16.70;99.90;;;;;;4994747;28;20270;-52
2021/07/07 00:03:28;;;;;;;4.27;1.37;;;16.70;99.90;;;;;;4991971;28;20305;-52
2021/07/07 00:05:55;;;;;;;2.30;1.50;;;16.70;99.90;;;;;;4993676;28;20386;-51
2021/07/07 00:08:22;;;;;;;3.33;1.53;;;16.70;99.90;;;;;;4993628;28;20672;-51
2021/07/07 00:10:49;;;;;;;2.33;1.40;;;16.60;99.90;;;;;;4992962;28;20215;-52
2021/07/07 00:13:16;;;;;;;2.67;1.47;;;16.70;99.90;;;;;;4993561;28;20674;-52
2021/07/07 00:15:43;;;;;;;2.13;1.40;;;16.70;99.90;;;;;;4996138;28;20266;-52
2021/07/07 00:18:11;;;;;;;1.93;1.20;;;16.60;99.90;;;;;;4993257;28;20739;-52
2021/07/07 00:20:54;;;;;;;5.13;1.40;;;16.60;99.90;;;;;;4991881;28;20244;-51
2021/07/07 00:23:26;;;;;;;4.50;1.30;;;16.50;99.90;;;;;;4991402;28;20302;-52
2021/07/07 00:25:53;;;;;;;4.13;1.70;;;16.30;99.90;;;;;;4993797;28;20264;-52
2021/07/07 00:28:21;;;;;;;2.67;1.70;;;16.30;99.90;;;;;;4994979;28;20254;-52
2021/07/07 00:30:52;;;;;;;5.53;1.60;;;16.40;99.90;;;;;;4992608;28;20605;-52
2021/07/07 00:33:20;;;;;;;4.73;1.40;;;16.30;99.90;;;;;;4992110;28;20199;-52
2021/07/07 00:35:47;;;;;;;3.77;1.60;;;16.40;99.90;;;;;;4994120;28;20335;-52
2021/07/07 00:38:15;;;;;;;2.77;1.30;;;16.30;99.90;;;;;;4991425;28;20385;-51
2021/07/07 00:40:43;;;;;;;3.60;1.50;;;16.20;99.90;;;;;;4993464;28;20452;-52
2021/07/07 00:43:12;;;;;;;2.53;1.50;;;16.10;99.90;;;;;;4991343;28;20293;-52
2021/07/07 00:45:39;;;;;;;3.73;1.60;;;16.00;99.90;;;;;;5002992;28;20603;-52
2021/07/07 00:48:07;;;;;;;7.97;1.80;;;16.00;99.90;;;;;;4991089;28;20209;-52
2021/07/07 00:50:34;;;;;;;4.10;1.67;;;16.00;99.90;;;;;;4994242;28;20289;-52
2021/07/07 00:53:01;;;;;;;3.50;1.80;;;16.00;99.90;;;;;;4992300;28;20632;-52
2021/07/07 00:55:28;;;;;;;4.73;1.60;;;16.00;99.90;;;;;;4992747;28;20231;-52
2021/07/07 00:57:57;;;;;;;5.17;1.70;;;16.10;99.90;;;;;;4991186;28;20799;-52
2021/07/07 01:00:24;;;;;;;2.70;1.80;;;15.90;99.90;;;;;;4992480;28;20206;-51
2021/07/07 01:02:54;;;;;;;4.40;1.53;;;16.00;99.90;;;;;;4990528;28;20350;-52
2021/07/07 01:05:21;;;;;;;1.40;1.30;;;16.00;99.90;;;;;;4993484;28;20247;-52
2021/07/07 01:07:48;;;;;;;3.87;1.70;;;16.00;99.90;;;;;;4990783;28;20207;-52
2021/07/07 01:10:17;;;;;;;4.80;1.90;;;16.10;99.90;;;;;;4991262;28;20625;-52
2021/07/07 01:12:45;;;;;;;3.57;1.60;;;15.90;99.90;;;;;;4991982;28;20298;-51
2021/07/07 01:15:18;;;;;;;3.70;1.60;;;15.80;99.90;;;;;;4993424;28;20211;-52
2021/07/07 01:17:45;;;;;;;4.93;1.70;;;15.70;99.90;;;;;;4990780;28;20323;-52
2021/07/07 01:20:17;;;;;;;2.70;1.50;;;15.80;99.90;;;;;;4992610;28;20607;-52
2021/07/07 01:22:44;;;;;;;5.43;2.03;;;15.90;99.90;;;;;;4990718;28;20301;-52
2021/07/07 01:25:13;;;;;;;2.80;1.50;;;15.80;99.90;;;;;;4991069;28;20700;-52
2021/07/07 01:27:42;;;;;;;1.63;1.53;;;15.90;99.90;;;;;;4992623;28;20733;-52
2021/07/07 01:30:13;;;;;;;6.50;2.00;;;15.90;99.90;;;;;;4991408;28;21129;-52
2021/07/07 01:32:41;;;;;;;2.67;1.97;;;15.80;99.90;;;;;;4989033;28;20258;-52
2021/07/07 01:35:08;;;;;;;4.50;1.70;;;15.80;99.90;;;;;;4992597;28;21326;-52
2021/07/07 01:37:36;;;;;;;3.93;2.10;;;15.90;99.90;;;;;;4992524;28;20254;-51
2021/07/07 01:40:04;;;;;;;1.93;1.73;;;16.00;99.90;;;;;;4991072;28;20218;-52
2021/07/07 01:42:31;;;;;;;3.97;1.93;;;15.90;99.90;;;;;;4991840;28;20204;-52
2021/07/07 01:44:58;;;;;;;6.37;2.27;;;15.90;99.90;;;;;;4991851;28;20262;-52
2021/07/07 01:47:25;;;;;;;3.80;1.80;;;15.90;99.90;;;;;;4992414;28;20198;-52
2021/07/07 01:49:52;;;;;;;2.37;1.90;;;15.90;99.90;;;;;;4988901;28;20201;-52
2021/07/07 01:52:19;;;;;;;3.80;2.00;;;15.90;99.90;;;;;;4993033;28;20302;-51
2021/07/07 01:54:46;;;;;;;4.23;1.63;;;15.80;99.90;;;;;;4993307;28;20737;-52
2021/07/07 01:57:12;;;;;;;3.00;2.00;;;15.80;99.90;;;;;;4992958;28;20640;-52
2021/07/07 01:59:39;;;;;;;5.20;1.70;;;15.90;99.90;;;;;;4996222;28;20580;-52
2021/07/07 02:02:06;;;;;;;3.53;2.07;;;15.80;99.90;;;;;;4991202;28;20211;-51
2021/07/07 02:04:33;;;;;;;2.50;1.90;;;15.80;99.90;;;;;;4990494;28;20255;-52
2021/07/07 02:07:00;;;;;;;3.77;1.83;;;15.90;99.90;;;;;;4993423;28;20380;-52
2021/07/07 02:09:27;;;;;;;3.20;1.70;;;15.90;99.90;;;;;;4991650;28;20569;-51
2021/07/07 02:11:54;;;;;;;8.37;2.20;;;15.80;99.90;;;;;;4992666;28;20298;-52
2021/07/07 02:14:24;;;;;;;2.80;1.90;;;15.90;99.90;;;;;;4990711;28;20236;-52
2021/07/07 02:16:51;;;;;;;3.57;1.80;;;15.80;99.90;;;;;;4990124;28;20309;-52
2021/07/07 02:19:18;;;;;;;3.73;1.93;;;15.70;99.90;;;;;;4993426;28;20214;-52
2021/07/07 02:21:45;;;;;;;4.30;2.00;;;15.80;99.90;;;;;;4991179;28;20294;-52
2021/07/07 02:24:12;;;;;;;2.37;1.77;;;15.80;99.90;;;;;;4989769;28;20306;-51
2021/07/07 02:26:39;;;;;;;6.13;1.97;;;15.80;99.90;;;;;;4991662;28;20266;-52
2021/07/07 02:29:06;;;;;;;3.37;1.97;;;15.90;99.90;;;;;;4996803;28;20230;-52
2021/07/07 02:31:33;;;;;;;1.70;1.60;;;15.90;99.90;;;;;;4994634;28;20789;-52
2021/07/07 02:34:00;;;;;;;3.07;1.90;;;15.90;99.90;;;;;;4996284;28;20247;-52
2021/07/07 02:36:27;;;;;;;2.87;1.70;;;16.00;99.90;;;;;;4997742;28;20238;-52
2021/07/07 02:38:54;;;;;;;7.40;2.00;;;16.00;99.90;;;;;;4994325;28;20244;-52
2021/07/07 02:41:21;;;;;;;3.10;2.07;;;16.00;99.90;;;;;;4995965;28;20634;-51
2021/07/07 02:43:47;;;;;;;2.00;1.73;;;16.00;99.90;;;;;;4994923;28;20751;-52
2021/07/07 02:46:14;;;;;;;2.07;1.50;;;16.00;99.90;;;;;;4997453;28;21087;-51
2021/07/07 02:48:41;;;;;;;3.70;1.60;;;16.00;99.90;;;;;;5008348;28;20625;-52
2021/07/07 02:51:08;;;;;;;2.70;2.10;;;16.00;99.90;;;;;;4992131;28;20233;-51
2021/07/07 02:53:35;;;;;;;4.00;2.00;;;15.90;99.90;;;;;;4990507;28;20329;-52
2021/07/07 02:56:03;;;;;;;5.93;1.80;;;16.00;99.90;;;;;;4993927;28;20846;-52
2021/07/07 02:58:30;;;;;;;1.83;1.70;;;16.00;99.90;;;;;;4991854;28;20226;-52
2021/07/07 03:00:57;;;;;;;2.63;1.60;;;16.00;99.90;;;;;;4995369;28;20310;-52
2021/07/07 03:03:25;;;;;;;4.70;1.90;;;16.00;99.90;;;;;;4991190;28;20747;-52
2021/07/07 03:05:54;;;;;;;3.00;2.27;;;16.00;99.90;;;;;;4994489;28;22320;-52
2021/07/07 03:08:24;;;;;;;2.20;1.90;;;16.00;99.90;;;;;;4993333;28;20301;-52
2021/07/07 03:10:51;;;;;;;4.53;1.90;;;16.00;99.90;;;;;;4993592;28;20585;-51
2021/07/07 03:13:23;;;;;;;2.70;1.90;;;16.00;99.90;;;;;;4993457;28;20236;-52
2021/07/07 03:15:50;;;;;;;2.13;1.97;;;15.90;99.90;;;;;;4995160;28;20272;-51
2021/07/07 03:18:18;;;;;;;3.57;2.10;;;15.80;99.90;;;;;;4992116;28;20217;-52
2021/07/07 03:20:46;;;;;;;7.33;2.93;;;15.80;99.90;;;;;;4993662;28;20304;-52
2021/07/07 03:23:16;;;;;;;4.03;1.93;;;15.90;99.90;;;;;;4991529;28;20616;-52
2021/07/07 03:25:43;;;;;;;2.30;1.90;;;15.90;99.90;;;;;;4993338;28;20265;-51
2021/07/07 03:28:10;;;;;;;4.20;1.90;;;16.00;99.90;;;;;;5006047;28;20289;-51
2021/07/07 03:30:37;;;;;;;4.37;1.87;;;16.10;99.90;;;;;;4994519;28;20714;-52
2021/07/07 03:33:04;;;;;;;4.93;2.50;;;16.00;99.90;;;;;;4991253;28;20240;-51
2021/07/07 03:35:31;;;;;;;2.60;1.87;;;15.80;99.90;;;;;;4994166;28;20253;-52
2021/07/07 03:37:58;;;;;;;7.13;2.57;;;15.80;99.90;;;;;;4994002;28;20657;-52
2021/07/07 03:40:26;;;;;;;3.93;2.87;;;15.90;99.90;;;;;;4991101;28;20304;-51
2021/07/07 03:42:53;;;;;;;2.80;2.23;;;15.90;99.90;;;;;;4994403;28;20206;-51
2021/07/07 03:45:21;;;;;;;3.90;1.97;;;15.90;99.90;;;;;;4993042;28;20233;-51
2021/07/07 03:47:48;;;;;;;3.40;2.00;;;15.90;99.90;;;;;;4992803;28;20202;-52
2021/07/07 03:50:16;;;;;;;3.60;2.20;;;15.90;99.90;;;;;;4992117;28;21759;-52
2021/07/07 03:52:44;;;;;;;2.20;1.90;;;16.00;99.90;;;;;;4992549;28;20200;-52
2021/07/07 03:55:13;;;;;;;3.47;1.87;;;16.00;99.90;;;;;;4994781;28;20321;-52
2021/07/07 03:57:41;;;;;;;3.83;2.00;;;16.10;99.90;;;;;;4992330;28;20253;-51
2021/07/07 04:00:14;;;;;;;7.13;1.90;;;15.90;99.90;;;;;;4993538;28;20297;-52
2021/07/07 04:02:42;;;;;;;3.67;2.10;;;16.00;99.90;;;;;;4992858;28;20284;-52
2021/07/07 04:05:10;;;;;;;4.07;2.23;;;16.00;99.90;;;;;;4993662;28;20302;-52
2021/07/07 04:07:40;;;;;;;3.67;1.97;;;16.00;99.90;;;;;;4995593;28;20648;-52
2021/07/07 04:10:08;;;;;;;3.07;2.27;;;16.10;99.90;;;;;;4993379;28;20961;-51
2021/07/07 04:12:35;;;;;;;2.33;2.17;;;16.10;99.90;;;;;;4993695;28;20675;-52
2021/07/07 04:15:05;;;;;;;4.43;2.40;;;16.10;99.90;;;;;;4993910;28;20299;-52
2021/07/07 04:17:32;;;;;;;3.07;2.20;;;16.00;99.90;;;;;;4992375;28;20206;-52
2021/07/07 04:19:59;;;;;;;2.77;2.27;;;16.00;99.90;;;;;;4993265;28;20872;-52
2021/07/07 04:22:26;;;;;;;5.77;2.10;;;16.00;99.90;;;;;;4992014;28;20308;-52
2021/07/07 04:24:53;;;;;;;5.43;2.50;;;16.00;99.90;;;;;;4994909;28;20275;-52
2021/07/07 04:27:20;;;;;;;6.30;2.77;;;16.00;99.90;;;;;;4977654;28;20340;-51
2021/07/07 04:29:47;;;;;;;5.20;2.40;;;15.90;99.90;;;;;;4995807;28;20212;-52
2021/07/07 04:32:16;;;;;;;2.80;2.50;;;15.90;99.90;;;;;;4992487;28;20249;-52
2021/07/07 04:34:47;;;;;;;3.60;2.50;;;16.00;99.90;;;;;;4993024;28;20299;-52
2021/07/07 04:37:14;;;;;;;3.50;2.37;;;16.10;99.90;;;;;;5008786;28;20233;-51
2021/07/07 04:39:40;;;;;;;4.53;2.20;;;16.00;99.90;;;;;;4991851;28;20226;-52
2021/07/07 04:42:07;;;;;;;6.03;2.43;;;16.10;99.90;;;;;;4994749;28;20208;-52
2021/07/07 04:44:34;;;;;;;4.67;2.40;;;16.10;99.90;;;;;;4991662;28;20989;-51
2021/07/07 04:47:01;;;;;;;7.27;2.37;;;16.20;99.90;;;;;;4990157;28;20662;-52
2021/07/07 04:49:28;;;;;;;4.33;2.73;;;16.20;99.90;;;;;;4993933;28;20308;-52
2021/07/07 04:51:55;;;;;;;4.90;2.60;;;16.20;99.90;;;;;;4994763;28;20205;-52
2021/07/07 04:54:22;;;;;;;6.17;2.93;;;16.20;99.90;;;;;;4992243;28;20322;-51
2021/07/07 04:56:49;;;;;;;3.77;2.50;;;16.20;99.90;;;;;;4995135;28;20242;-52
2021/07/07 04:59:16;;;;;;;5.00;2.90;;;16.20;99.90;;;;;;4995357;28;20396;-52
2021/07/07 05:01:42;;;;;;;8.30;2.47;;;16.30;99.90;;;;;;4994507;28;20278;-52
2021/07/07 05:04:09;;;;;;;3.80;2.67;;;16.30;99.90;;;;;;4991983;28;20303;-52
2021/07/07 05:06:36;;;;;;;2.97;2.50;;;16.30;99.90;;;;;;4994584;28;20271;-52
2021/07/07 05:09:03;;;;;;;5.23;2.40;;;16.20;99.90;;;;;;4993055;28;20284;-52
2021/07/07 05:11:30;;;;;;;4.90;2.40;;;16.10;99.90;;;;;;4993295;28;20520;-52
2021/07/07 05:13:57;;;;;;;6.40;2.77;;;16.10;99.90;;;;;;4991782;28;20293;-52
2021/07/07 05:16:24;;;;;;;3.70;2.43;;;16.30;99.90;;;;;;4990468;28;20324;-52
2021/07/07 05:18:51;;;;;;;3.67;2.67;;;16.30;99.90;;;;;;4990725;28;20251;-52
2021/07/07 05:21:18;;;;;;;3.20;2.40;;;16.30;99.90;;;;;;4990682;28;20298;-51
2021/07/07 05:23:45;;;;;;;5.00;2.70;;;16.30;99.90;;;;;;4988778;28;20217;-52
2021/07/07 05:26:11;;;;;;;5.17;2.37;;;16.30;99.90;;;;;;4991579;28;22538;-52
2021/07/07 05:28:38;;;;;;;4.00;2.67;;;16.20;99.90;;;;;;4993291;28;20202;-52
2021/07/07 05:31:06;;;;;;;6.47;2.67;;;16.30;99.90;;;;;;4989306;28;20626;-52
2021/07/07 05:33:35;;;;;;;5.27;2.87;;;16.40;99.90;;;;;;4991379;28;20202;-51
2021/07/07 05:36:07;;;;;;;3.07;2.60;;;16.40;99.90;;;;;;4992137;28;20226;-52
2021/07/07 05:38:34;;;;;;;4.80;2.30;;;16.40;99.90;;;;;;4996780;28;20306;-52
2021/07/07 05:41:01;;;;;;;7.63;2.87;;;16.50;99.90;;;;;;4994115;28;20272;-51
2021/07/07 05:43:29;;;;;;;5.37;2.63;;;16.50;99.90;;;;;;4992206;28;20636;-51
2021/07/07 05:45:59;;;;;;;3.57;2.43;;;16.50;99.90;;;;;;4994163;28;20333;-52
2021/07/07 05:48:27;;;;;;;6.47;2.80;;;16.50;99.90;;;;;;4993388;28;20229;-52
2021/07/07 05:50:55;;;;;;;4.30;2.27;;;16.50;99.90;;;;;;4993006;28;20282;-52
2021/07/07 05:53:23;;;;;;;4.57;2.53;;;16.50;99.90;;;;;;4993254;28;20279;-52
2021/07/07 05:55:50;;;;;;;3.63;2.17;;;16.50;99.90;;;;;;4994344;28;20296;-52
2021/07/07 05:58:17;;;;;;;7.60;2.90;;;16.50;99.90;;;;;;4995422;28;20207;-51
2021/07/07 06:00:44;;;;;;;5.83;2.93;;;16.50;99.90;;;;;;4989070;28;20630;-52
2021/07/07 06:03:11;;;;;;;5.70;2.60;;;16.60;99.90;;;;;;4990496;28;20247;-52
2021/07/07 06:05:38;;;;;;;8.90;3.10;;;16.60;99.90;;;;;;4992357;28;20574;-52
2021/07/07 06:08:06;;;;;;;6.47;2.90;;;16.60;99.90;;;;;;4990454;28;20263;-52
2021/07/07 06:10:33;;;;;;;5.87;2.57;;;16.50;99.90;;;;;;4992629;28;20283;-52
2021/07/07 06:13:00;;;;;;;8.73;3.00;;;16.70;99.90;;;;;;4993101;28;20207;-52
2021/07/07 06:15:27;;;;;;;3.57;2.73;;;16.80;99.90;;;;;;4991245;28;20202;-52
2021/07/07 06:17:54;;;;;;;7.20;3.50;;;16.80;99.90;;;;;;4996805;28;20234;-52
2021/07/07 06:20:23;;;;;;;8.40;3.00;;;16.80;99.90;;;;;;4995641;28;20229;-52
2021/07/07 06:22:49;;;;;;;3.90;2.80;;;16.80;99.90;;;;;;4993684;28;20238;-52
2021/07/07 06:25:16;;;;;;;5.00;2.70;;;16.90;99.90;;;;;;4994422;28;20234;-51
2021/07/07 06:27:43;;;;;;;5.80;2.90;;;16.90;99.90;;;;;;4994452;28;20627;-52
2021/07/07 06:30:14;;;;;;;6.70;2.90;;;17.10;99.90;;;;;;4994263;28;20694;-52
2021/07/07 06:32:43;;;;;;;7.07;3.10;;;17.20;99.90;;;;;;4993677;28;20265;-52
2021/07/07 06:35:10;;;;;;;7.03;2.90;;;17.20;99.90;;;;;;4994727;28;20198;-52
2021/07/07 06:37:38;;;;;;;4.17;3.10;;;17.30;99.90;;;;;;4993951;28;20211;-52
2021/07/07 06:40:05;;;;;;;4.03;2.80;;;17.30;99.90;;;;;;4995308;28;20211;-52
2021/07/07 06:42:32;;;;;;;9.13;2.87;;;17.20;99.90;;;;;;4993235;28;20207;-52
2021/07/07 06:45:00;;;;;;;4.13;2.70;;;17.50;99.90;;;;;;4994260;28;20242;-52
2021/07/07 06:47:27;;;;;;;5.67;2.40;;;17.70;99.90;;;;;;4993305;28;20633;-52
2021/07/07 06:49:54;;;;;;;5.00;3.87;;;17.80;99.90;;;;;;4993081;28;20638;-52
2021/07/07 06:52:21;;;;;;;4.77;2.73;;;17.80;99.90;;;;;;4994343;28;20265;-52
2021/07/07 06:54:48;;;;;;;10.30;2.90;;;18.00;99.90;;;;;;4992882;28;20323;-52
2021/07/07 06:57:15;;;;;;;8.50;2.63;;;18.00;69.10;;;;;;4993724;28;20657;-52
2021/07/07 06:59:42;;;;;;;5.00;2.93;;;18.10;99.90;;;;;;4993604;28;20939;-52
2021/07/07 07:02:09;;;;;;;8.27;3.13;;;18.20;99.90;;;;;;4991836;28;20220;-52
2021/07/07 07:04:36;;;;;;;2.50;2.10;;;18.10;42.00;;;;;;4993845;28;20204;-52
2021/07/07 07:07:03;;;;;;;6.23;2.60;;;18.10;70.70;;;;;;4991581;28;20227;-52
2021/07/07 07:09:30;;;;;;;7.63;2.80;;;18.30;10.40;;;;;;4994490;28;20312;-52
2021/07/07 07:11:57;;;;;;;3.13;1.90;;;18.60;1.00;;;;;;4995744;28;20348;-52
2021/07/07 07:14:24;;;;;;;3.43;2.07;;;18.60;1.00;;;;;;4995554;28;20329;-52
2021/07/07 07:16:51;;;;;;;5.33;2.80;;;19.00;1.00;;;;;;4996419;28;20683;-52
2021/07/07 07:19:18;;;;;;;5.13;2.23;;;19.00;1.00;;;;;;4996147;28;20208;-52
2021/07/07 07:21:45;;;;;;;4.00;2.07;;;19.20;1.00;;;;;;4994104;28;20623;-52
2021/07/07 07:24:12;;;;;;;3.10;2.10;;;19.30;1.00;;;;;;4993230;28;20291;-52
2021/07/07 07:26:40;;;;;;;4.50;2.03;;;19.40;1.00;;;;;;4990106;28;20336;-52
2021/07/07 07:29:06;;;;;;;2.53;1.77;;;19.70;1.00;;;;;;4996266;28;20197;-53
2021/07/07 07:31:33;;;;;;;3.42;1.95;;;19.90;1.00;;;;;;4994260;28;20560;-52
2021/07/07 07:34:00;;;;;;;5.77;1.90;;;20.30;1.00;;;;;;4997170;28;20311;-51
2021/07/07 07:36:28;;;;;;;8.27;2.10;;;20.90;1.00;;;;;;4995360;28;20268;-51
2021/07/07 07:39:00;;;;;;;4.25;2.08;;;21.40;99.90;;;;;;4993048;28;20609;-53
2021/07/07 07:41:32;;;;;;;7.03;1.63;;;21.10;1.00;;;;;;4992761;28;20294;-53
2021/07/07 07:43:59;;;;;;;4.37;2.00;;;21.10;99.90;;;;;;4997750;28;20293;-53
2021/07/07 07:46:28;;;;;;;3.40;1.70;;;21.00;1.00;;;;;;4997816;28;20318;-53
2021/07/07 07:48:56;;;;;;;4.47;1.70;;;20.90;1.00;;;;;;4996294;28;20224;-53
2021/07/07 07:51:28;;;;;;;3.90;1.80;;;21.00;99.90;;;;;;5000137;28;20222;-53
2021/07/07 07:53:55;;;;;;;5.80;2.07;;;21.00;1.00;;;;;;4998148;28;20640;-53
2021/07/07 07:56:22;;;;;;;2.30;1.03;;;20.90;1.00;;;;;;5001901;28;20236;-53
2021/07/07 07:58:49;;;;;;;5.50;2.17;;;21.30;71.80;;;;;;5001114;28;20279;-53
2021/07/07 08:01:16;;;;;;;4.33;1.40;;;21.50;1.00;;;;;;4997406;28;20249;-53
2021/07/07 08:03:43;;;;;;;2.57;2.00;;;21.60;1.00;;;;;;4997895;28;20226;-53
2021/07/07 08:06:14;;;;;;;4.17;1.77;;;21.70;99.90;;;;;;4995597;28;20282;-52
2021/07/07 08:08:48;;;;;;;3.57;1.80;;;21.90;1.00;;;;;;5013503;28;20209;-52
2021/07/07 08:11:16;;;;;;;3.67;1.60;;;21.90;99.90;;;;;;4992482;28;20340;-52
2021/07/07 08:13:43;;;;;;;4.30;2.20;;;22.00;99.90;;;;;;4994869;28;20291;-52
2021/07/07 08:16:10;;;;;;;2.80;1.90;;;22.20;1.00;;;;;;4986286;28;20601;-52
2021/07/07 08:18:38;;;;;;;5.20;1.70;;;22.00;1.00;;;;;;4995145;28;20200;-52
2021/07/07 08:21:05;;;;;;;3.83;1.60;;;22.10;99.90;;;;;;4996484;28;20624;-52
2021/07/07 08:23:32;;;;;;;4.97;1.43;;;22.30;1.00;;;;;;4995342;28;20303;-52
2021/07/07 08:25:59;;;;;;;5.03;1.73;;;22.30;1.00;;;;;;4987336;28;20345;-52
2021/07/07 08:28:26;;;;;;;3.20;1.40;;;22.20;1.00;;;;;;4992067;28;20694;-52
2021/07/07 08:30:53;;;;;;;3.00;1.67;;;22.20;99.90;;;;;;4993999;28;20226;-52
2021/07/07 08:33:20;;;;;;;5.87;2.07;;;22.30;1.00;;;;;;4992923;28;20207;-53
2021/07/07 08:35:47;;;;;;;5.47;1.57;;;22.50;99.90;;;;;;4994787;28;20329;-52
2021/07/07 08:38:14;;;;;;;4.33;1.77;;;22.80;1.00;;;;;;4993710;28;20212;-52
2021/07/07 08:40:41;;;;;;;5.03;2.20;;;22.70;1.00;;;;;;4995268;28;20221;-52
2021/07/07 08:43:09;;;;;;;3.53;1.67;;;22.70;1.00;;;;;;4993474;28;20232;-52
2021/07/07 08:45:36;;;;;;;3.43;1.30;;;22.60;1.00;;;;;;4993061;28;20386;-52
2021/07/07 08:48:04;;;;;;;4.73;1.83;;;22.30;99.90;;;;;;4991038;28;20216;-53
2021/07/07 08:50:36;;;;;;;4.57;1.50;;;21.80;1.00;;;;;;4996226;28;20197;-52
2021/07/07 08:53:06;;;;;;;3.27;1.47;;;22.10;99.90;;;;;;4995677;28;20234;-53
2021/07/07 08:55:34;;;;;;;4.97;1.60;;;22.20;1.00;;;;;;5006810;28;20590;-52
2021/07/07 08:58:03;;;;;;;4.47;2.00;;;22.70;99.90;;;;;;4993874;28;20231;-52
2021/07/07 09:00:35;;;;;;;2.23;1.40;;;22.50;1.00;;;;;;4992899;28;21000;-52
2021/07/07 09:03:08;;;;;;;6.10;2.90;;;22.20;1.00;;;;;;4993688;28;20212;-52
2021/07/07 09:05:51;;;;;;;3.27;1.73;;;21.90;90.50;;;;;;4996033;28;20305;-53
2021/07/07 09:08:27;;;;;;;4.20;1.60;;;21.90;1.00;;;;;;4990013;28;20241;-52
2021/07/07 09:10:56;;;;;;;2.97;1.60;;;21.70;1.00;;;;;;4995355;28;20227;-52
2021/07/07 09:13:24;;;;;;;3.13;1.50;;;22.50;1.00;;;;;;4989773;28;20244;-52
2021/07/07 09:15:51;;;;;;;3.80;1.63;;;22.50;99.90;;;;;;4992943;28;20299;-53
2021/07/07 09:18:33;;;;;;;3.07;1.37;;;22.30;3.50;;;;;;4991001;28;20622;-52
2021/07/07 09:21:00;;;;;;;7.93;1.63;;;22.50;99.90;;;;;;4992191;28;20639;-52
2021/07/07 09:23:30;;;;;;;5.57;1.50;;;22.30;1.00;;;;;;4993272;28;20673;-52
2021/07/07 09:26:00;;;;;;;3.03;1.77;;;21.90;1.00;;;;;;4992772;28;20209;-53
2021/07/07 09:28:29;;;;;;;3.33;1.53;;;21.80;99.90;;;;;;4991815;28;20308;-52
2021/07/07 09:31:19;;;;;;;4.40;1.20;;;21.90;1.00;;;;;;5007492;28;20284;-52
2021/07/07 09:33:45;;;;;;;4.53;1.30;;;22.30;1.00;;;;;;4991852;28;20216;-52
2021/07/07 09:36:21;;;;;;;3.90;1.47;;;22.60;1.00;;;;;;4995708;28;20494;-53
2021/07/07 09:38:49;;;;;;;4.77;1.47;;;22.50;1.00;;;;;;4993622;28;20627;-52
2021/07/07 09:41:17;;;;;;;4.37;1.50;;;22.30;99.90;;;;;;4998543;28;20216;-53
2021/07/07 09:43:52;;;;;;;6.60;1.53;;;22.30;99.90;;;;;;4992872;28;20380;-53
2021/07/07 09:46:22;;;;;;;5.43;1.53;;;21.80;1.00;;;;;;4996190;28;20308;-52
2021/07/07 09:48:52;;;;;;;5.23;1.93;;;21.50;1.00;;;;;;4992198;28;20216;-52
2021/07/07 09:51:19;;;;;;;5.70;1.60;;;21.50;99.90;;;;;;4993375;28;20206;-52
2021/07/07 09:53:46;;;;;;;6.27;1.60;;;22.00;24.00;;;;;;4989595;28;20333;-52
2021/07/07 09:56:13;;;;;;;3.53;1.50;;;22.30;1.00;;;;;;4996322;28;20291;-52
2021/07/07 09:58:40;;;;;;;3.13;1.63;;;22.70;1.00;;;;;;4991422;28;20255;-52
2021/07/07 10:01:07;;;;;;;4.97;1.57;;;22.90;35.60;;;;;;4993189;28;20251;-52
2021/07/07 10:03:35;;;;;;;4.43;1.77;;;22.70;99.90;;;;;;4992671;28;20629;-52
2021/07/07 10:06:03;;;;;;;2.07;1.40;;;22.20;67.40;;;;;;5006520;28;20307;-52
2021/07/07 10:08:30;;;;;;;3.77;1.70;;;21.80;19.20;;;;;;4995472;28;20242;-52
2021/07/07 10:10:58;;;;;;;3.53;1.80;;;21.70;1.00;;;;;;4996110;28;20677;-52
2021/07/07 10:13:27;;;;;;;6.57;1.77;;;21.70;1.00;;;;;;4989944;28;20293;-53
2021/07/07 10:15:54;;;;;;;2.10;1.23;;;21.60;99.90;;;;;;4992878;28;20198;-52
2021/07/07 10:18:22;;;;;;;3.00;1.50;;;22.00;1.00;;;;;;4993306;28;20305;-52
2021/07/07 10:20:49;;;;;;;3.87;1.80;;;22.00;1.00;;;;;;4990188;28;20252;-52
2021/07/07 10:23:18;;;;;;;2.07;1.27;;;21.80;1.00;;;;;;4992987;28;20272;-52
2021/07/07 10:25:59;;;;;;;2.83;1.60;;;21.70;1.00;;;;;;4991987;28;20211;-52
2021/07/07 10:28:26;;;;;;;2.87;1.83;;;21.60;99.90;;;;;;4993093;28;20217;-52
2021/07/07 10:30:59;;;;;;;5.80;2.00;;;21.60;1.00;;;;;;4994826;28;20235;-52
2021/07/07 10:33:28;;;;;;;3.73;1.73;;;21.90;1.00;;;;;;4993900;28;20288;-52
2021/07/07 10:36:29;;;;;;;2.13;1.70;;;22.10;1.00;;;;;;4984249;28;20263;-52
2021/07/07 10:38:59;;;;;;;3.77;1.70;;;22.40;99.90;;;;;;4982013;28;20262;-53
2021/07/07 10:41:41;;;;;;;3.93;1.50;;;22.60;1.70;;;;;;4994990;28;20603;-52
2021/07/07 10:44:10;;;;;;;2.87;1.63;;;22.30;1.00;;;;;;4993647;28;20563;-52
2021/07/07 10:46:58;;;;;;;2.60;1.50;;;22.00;1.00;;;;;;4978791;28;20566;-52
2021/07/07 10:49:27;;;;;;;2.30;1.60;;;22.10;1.00;;;;;;4995804;28;21037;-52
2021/07/07 10:51:56;;;;;;;3.27;1.70;;;22.40;1.00;;;;;;5011933;28;20262;-52
2021/07/07 10:54:27;;;;;;;3.07;1.67;;;22.30;99.90;;;;;;4997351;28;20343;-52
2021/07/07 10:56:55;;;;;;;4.10;1.70;;;22.10;1.00;;;;;;5001843;28;20279;-52
2021/07/07 10:59:39;;;;;;;2.93;1.50;;;22.20;1.00;;;;;;4999510;28;20221;-52
2021/07/07 11:02:14;;;;;;;3.30;1.77;;;21.90;99.90;;;;;;4994092;28;20292;-52
2021/07/07 11:04:43;;;;;;;2.13;1.60;;;21.90;1.00;;;;;;4994778;28;20213;-52
2021/07/07 11:07:32;;;;;;;2.77;1.30;;;21.90;99.90;;;;;;4993744;28;20214;-52
2021/07/07 11:10:00;;;;;;;2.90;1.40;;;22.00;99.90;;;;;;4995217;28;20231;-52
2021/07/07 11:12:30;;;;;;;2.73;1.27;;;22.20;1.00;;;;;;4996320;28;20289;-52
2021/07/07 11:15:06;;;;;;;2.87;1.83;;;22.50;99.90;;;;;;4991826;28;20201;-59
2021/07/07 11:17:43;;;;;;;3.30;1.47;;;22.80;1.00;;;;;;4993492;28;20246;-60
2021/07/07 11:20:13;;;;;;;3.07;1.60;;;23.00;1.00;;;;;;4993719;28;20202;-60
2021/07/07 11:22:43;;;;;;;1.87;1.37;;;23.10;99.90;;;;;;4994758;28;20308;-60
2021/07/07 11:25:13;;;;;;;3.50;1.57;;;22.50;99.90;;;;;;4993922;28;20205;-59
2021/07/07 11:27:40;;;;;;;3.70;1.83;;;22.30;1.00;;;;;;4992402;28;20356;-59
2021/07/07 11:30:11;;;;;;;2.57;1.90;;;22.20;1.00;;;;;;4990970;28;20297;-60
2021/07/07 11:32:48;;;;;;;2.30;1.53;;;21.90;90.90;;;;;;5009138;28;20229;-59
2021/07/07 11:35:30;;;;;;;2.03;1.77;;;22.20;99.90;;;;;;4994174;28;20259;-59
2021/07/07 11:38:03;;;;;;;3.57;1.70;;;23.00;1.00;;;;;;4996902;28;20288;-59
2021/07/07 11:40:32;;;;;;;5.07;1.70;;;23.20;1.00;;;;;;4994881;28;20649;-59
2021/07/07 11:43:04;;;;;;;3.73;1.80;;;23.40;1.00;;;;;;4994624;28;20293;-59
2021/07/07 11:45:48;;;;;;;3.20;1.60;;;23.40;99.90;;;;;;4993660;28;20243;-59
2021/07/07 11:51:06;;;;;;;2.67;1.87;;;22.90;99.90;;;;;;4994950;28;20653;-60
2021/07/07 11:53:35;;;;;;;2.30;1.50;;;23.20;1.00;;;;;;4990497;28;20260;-60
2021/07/07 11:56:07;;;;;;;1.50;1.40;;;23.30;99.90;;;;;;4991709;28;20700;-60
2021/07/07 11:58:38;;;;;;;2.37;1.60;;;23.70;99.90;;;;;;4989839;28;20279;-59
2021/07/07 12:01:21;;;;;;;4.20;2.03;;;23.60;88.60;;;;;;4993827;28;20256;-60
2021/07/07 12:03:53;;;;;;;1.87;1.60;;;23.90;1.00;;;;;;4993970;28;20530;-59
2021/07/07 12:06:36;;;;;;;3.23;1.80;;;23.90;1.00;;;;;;4993889;28;20203;-60
2021/07/07 12:09:17;;;;;;;4.23;1.60;;;24.10;99.90;;;;;;4989794;28;20754;-60
2021/07/07 12:11:55;;;;;;;3.13;1.57;;;24.00;1.00;;;;;;4996693;28;20201;-60
2021/07/07 12:14:24;;;;;;;4.53;1.43;;;23.90;1.00;;;;;;4982692;28;20887;-60
2021/07/07 12:16:53;;;;;;;2.73;1.50;;;23.80;1.00;;;;;;4966971;28;20661;-61
2021/07/07 12:19:20;;;;;;;2.30;1.53;;;24.10;1.00;;;;;;4975425;28;20209;-60
2021/07/07 12:21:48;;;;;;;2.30;1.70;;;24.10;1.00;;;;;;4982689;28;20304;-61
2021/07/07 12:24:31;;;;;;;2.20;1.70;;;23.60;1.00;;;;;;4986686;28;20214;-60
2021/07/07 12:27:05;;;;;;;4.47;2.33;;;23.50;1.00;;;;;;4990731;28;20223;-60
2021/07/07 12:29:34;;;;;;;3.87;1.33;;;23.30;1.00;;;;;;4988629;28;20346;-61
2021/07/07 12:32:07;;;;;;;2.60;1.33;;;23.70;1.00;;;;;;4992067;28;20718;-60
2021/07/07 12:34:40;;;;;;;2.43;1.80;;;23.50;1.00;;;;;;4990184;28;20249;-60
2021/07/07 12:37:15;;;;;;;3.80;1.57;;;23.10;1.00;;;;;;4989309;28;20320;-61
2021/07/07 12:39:49;;;;;;;2.23;1.50;;;23.20;1.00;;;;;;4991143;28;20265;-60
2021/07/07 12:42:28;;;;;;;2.83;1.70;;;23.00;1.00;;;;;;4992183;28;20207;-60
2021/07/07 12:45:06;;;;;;;2.07;1.60;;;23.00;99.90;;;;;;4989894;28;20302;-60
2021/07/07 12:47:34;;;;;;;1.60;1.50;;;23.40;1.00;;;;;;4989307;28;20296;-60
2021/07/07 12:50:01;;;;;;;4.80;2.10;;;24.00;99.90;;;;;;4987249;28;20301;-60
2021/07/07 12:52:34;;;;;;;2.50;1.40;;;24.50;1.00;;;;;;4987261;28;20369;-60
2021/07/07 12:55:21;;;;;;;3.37;1.97;;;24.40;99.90;;;;;;5007764;28;20690;-60
2021/07/07 12:58:05;;;;;;;4.27;1.40;;;24.20;1.00;;;;;;4990098;28;20200;-61
2021/07/07 13:00:39;;;;;;;4.13;1.90;;;24.20;1.00;;;;;;4985059;28;20229;-60
2021/07/07 13:03:14;;;;;;;2.00;1.57;;;24.10;1.00;;;;;;4986241;28;20227;-60